Time;durP1;ratioP1;P1;durP2;ratioP2;P2;SDS_P1;SDS_P2;PMS_P1;PMS_P2;Temp;Humidity;BMP_temperature;BMP_pressure;BME280_temperature;BME280_humidity;BME280_pressure;Samples;Min_cycle;Max_cycle;Signal;HPM_P1;HPM_P2
2023/04/08 00:00:17;;;;;;;;;;;;;;;21.52;33.62;101289.61;103727;1289;61378;-83
2023/04/08 00:02:43;;;;;;;;;;;;;;;21.53;33.66;101293.86;103650;1291;61323;-83
2023/04/08 00:05:08;;;;;;;;;;;;;;;21.52;33.69;101292.27;103639;1288;61450;-83
2023/04/08 00:07:34;;;;;;;;;;;;;;;21.52;33.58;101290.31;103685;1289;61410;-84
2023/04/08 00:10:00;;;;;;;;;;;;;;;21.52;33.60;101293.39;103639;1291;75356;-84
2023/04/08 00:12:26;;;;;;;;;;;;;;;21.52;33.50;101293.70;103701;1292;62380;-83
2023/04/08 00:14:51;;;;;;;;;;;;;;;21.52;33.55;101295.31;103737;1286;61451;-82
2023/04/08 00:17:17;;;;;;;;;;;;;;;21.52;33.72;101291.36;103723;1289;62497;-83
2023/04/08 00:19:42;;;;;;;;;;;;;;;21.52;33.55;101293.02;103659;1291;61375;-83
2023/04/08 00:22:08;;;;;;;;;;;;;;;21.52;33.60;101295.50;103674;1292;62561;-84
2023/04/08 00:24:33;;;;;;;;;;;;;;;21.52;33.68;101290.52;103692;1291;61397;-83
2023/04/08 00:26:59;;;;;;;;;;;;;;;21.52;33.64;101289.63;103699;1291;61386;-83
2023/04/08 00:29:25;;;;;;;;;;;;;;;21.52;33.58;101293.56;103614;1289;61372;-83
2023/04/08 00:31:51;;;;;;;;;;;;;;;21.52;33.65;101295.48;103668;1291;61480;-82
2023/04/08 00:34:17;;;;;;;;;;;;;;;21.53;33.57;101295.29;103760;1286;61382;-82
2023/04/08 00:36:42;;;;;;;;;;;;;;;21.53;33.60;101297.80;103660;1288;62009;-82
2023/04/08 00:39:07;;;;;;;;;;;;;;;21.52;33.71;101297.45;103637;1286;62010;-83
2023/04/08 00:41:34;;;;;;;;;;;;;;;21.53;33.72;101296.89;103688;1286;62170;-84
2023/04/08 00:44:00;;;;;;;;;;;;;;;21.52;33.46;101291.38;103679;1291;61393;-84
2023/04/08 00:46:27;;;;;;;;;;;;;;;21.52;33.59;101291.36;103664;1286;61438;-82
2023/04/08 00:48:54;;;;;;;;;;;;;;;21.52;33.56;101292.10;103592;1290;62608;-83
2023/04/08 00:51:20;;;;;;;;;;;;;;;21.52;33.69;101290.30;103659;1288;61261;-83
2023/04/08 00:53:46;;;;;;;;;;;;;;;21.52;33.61;101290.14;103671;1287;61378;-83
2023/04/08 00:56:12;;;;;;;;;;;;;;;21.52;33.66;101293.49;103706;1289;61410;-82
2023/04/08 00:58:37;;;;;;;;;;;;;;;21.52;33.67;101294.05;103719;1290;61517;-82
2023/04/08 01:01:05;;;;;;;;;;;;;;;21.53;33.66;101294.74;103678;1286;61370;-82
2023/04/08 01:03:30;;;;;;;;;;;;;;;21.52;33.56;101295.84;103686;1289;72518;-83
2023/04/08 01:05:59;;;;;;;;;;;;;;;21.52;33.71;101295.47;103633;1291;61397;-83
2023/04/08 01:08:25;;;;;;;;;;;;;;;21.52;33.70;101292.79;103731;1287;61401;-83
2023/04/08 01:10:52;;;;;;;;;;;;;;;21.52;33.68;101291.20;103745;1286;61381;-83
2023/04/08 01:13:17;;;;;;;;;;;;;;;21.52;33.54;101290.65;103649;1290;62423;-84
2023/04/08 01:15:43;;;;;;;;;;;;;;;21.52;33.59;101293.34;103629;1289;61342;-84
2023/04/08 01:18:11;;;;;;;;;;;;;;;21.53;33.56;101293.86;103684;1287;61774;-84
2023/04/08 01:20:38;;;;;;;;;;;;;;;21.52;33.55;101296.91;103780;1285;61399;-83
2023/04/08 01:23:07;;;;;;;;;;;;;;;21.53;33.66;101294.75;103701;1287;61638;-83
2023/04/08 01:25:34;;;;;;;;;;;;;;;21.53;33.69;101293.86;103725;1288;75190;-84
2023/04/08 01:28:00;;;;;;;;;;;;;;;21.52;33.59;101292.07;103691;1286;61336;-82
2023/04/08 01:30:25;;;;;;;;;;;;;;;21.52;33.64;101293.33;103680;1286;62419;-83
2023/04/08 01:32:52;;;;;;;;;;;;;;;21.53;33.58;101294.02;103723;1291;61394;-83
2023/04/08 01:35:18;;;;;;;;;;;;;;;21.53;33.64;101292.23;103691;1286;61513;-84
2023/04/08 01:37:43;;;;;;;;;;;;;;;21.53;33.55;101286.31;103677;1286;61391;-83
2023/04/08 01:40:09;;;;;;;;;;;;;;;21.52;33.53;101290.09;103699;1288;61459;-83
2023/04/08 01:42:34;;;;;;;;;;;;;;;21.53;33.55;101289.20;103743;1287;61345;-84
2023/04/08 01:45:00;;;;;;;;;;;;;;;21.53;33.53;101289.74;103630;1291;73510;-83
2023/04/08 01:47:26;;;;;;;;;;;;;;;21.53;33.60;101290.98;103694;1291;61317;-83
2023/04/08 01:49:51;;;;;;;;;;;;;;;21.53;33.53;101290.45;103596;1286;61317;-83
2023/04/08 01:52:17;;;;;;;;;;;;;;;21.53;33.50;101290.08;103627;1291;61282;-83
2023/04/08 01:54:43;;;;;;;;;;;;;;;21.53;33.53;101287.04;103712;1289;61410;-84
2023/04/08 01:57:08;;;;;;;;;;;;;;;21.53;33.57;101292.06;104027;1291;61404;-84
2023/04/08 01:59:35;;;;;;;;;;;;;;;21.53;33.67;101293.48;103685;1290;74251;-81
2023/04/08 02:02:00;;;;;;;;;;;;;;;21.53;33.50;101292.57;103622;1286;61839;-83
2023/04/08 02:04:26;;;;;;;;;;;;;;;21.53;33.60;101288.84;103730;1290;61344;-82
2023/04/08 02:06:51;;;;;;;;;;;;;;;21.53;33.51;101291.70;103743;1287;61409;-83
2023/04/08 02:09:17;;;;;;;;;;;;;;;21.53;33.60;101289.73;103655;1286;62424;-83
2023/04/08 02:11:42;;;;;;;;;;;;;;;21.53;33.69;101287.05;103725;1287;61457;-83
2023/04/08 02:14:08;;;;;;;;;;;;;;;21.53;33.56;101288.11;103664;1286;61180;-83
2023/04/08 02:16:41;;;;;;;;;;;;;;;21.53;33.62;101288.65;103593;1289;61721;-83
2023/04/08 02:19:23;;;;;;;;;;;;;;;21.53;33.57;101286.47;103667;1286;72863;-84
2023/04/08 02:21:51;;;;;;;;;;;;;;;21.54;33.55;101286.10;103728;1285;75447;-84
2023/04/08 02:24:17;;;;;;;;;;;;;;;21.53;33.78;101283.44;103701;1288;62616;-83
2023/04/08 02:26:43;;;;;;;;;;;;;;;21.53;33.73;101287.73;103658;1289;61312;-84
2023/04/08 02:29:10;;;;;;;;;;;;;;;21.53;33.68;101291.34;103690;1290;61397;-83
2023/04/08 02:31:36;;;;;;;;;;;;;;;21.53;33.72;101284.73;103698;1291;61404;-83
2023/04/08 02:34:01;;;;;;;;;;;;;;;21.53;33.67;101284.71;103641;1289;61375;-84
2023/04/08 02:36:28;;;;;;;;;;;;;;;21.53;33.78;101281.84;103622;1288;61384;-82
2023/04/08 02:38:53;;;;;;;;;;;;;;;21.53;33.64;101278.98;103647;1289;61378;-82
2023/04/08 02:41:20;;;;;;;;;;;;;;;21.52;33.76;101281.16;103683;1291;61381;-82
2023/04/08 02:43:46;;;;;;;;;;;;;;;21.52;33.71;101281.50;103725;1289;61480;-83
2023/04/08 02:46:12;;;;;;;;;;;;;;;21.52;33.74;101282.76;103691;1291;61308;-82
2023/04/08 02:48:37;;;;;;;;;;;;;;;21.53;33.75;101282.57;103704;1289;61397;-83
2023/04/08 02:51:03;;;;;;;;;;;;;;;21.52;33.69;101284.36;103605;1286;62331;-83
2023/04/08 02:53:28;;;;;;;;;;;;;;;21.52;33.77;101288.68;103549;1289;61404;-84
2023/04/08 02:55:54;;;;;;;;;;;;;;;21.53;33.90;101290.63;103730;1286;61351;-83
2023/04/08 02:58:20;;;;;;;;;;;;;;;21.52;33.78;101289.77;103653;1289;61425;-83
2023/04/08 03:00:45;;;;;;;;;;;;;;;21.52;33.76;101288.67;103751;1287;61375;-83
2023/04/08 03:03:11;;;;;;;;;;;;;;;21.52;33.77;101293.52;103687;1286;72870;-84
2023/04/08 03:05:36;;;;;;;;;;;;;;;21.52;33.78;101293.89;103678;1286;61385;-83
2023/04/08 03:08:02;;;;;;;;;;;;;;;21.53;33.70;101295.81;103721;1289;61377;-83
2023/04/08 03:10:27;;;;;;;;;;;;;;;21.53;33.79;101294.21;103630;1286;61407;-83
2023/04/08 03:12:53;;;;;;;;;;;;;;;21.52;33.68;101294.93;103688;1288;61382;-84
2023/04/08 03:15:19;;;;;;;;;;;;;;;21.53;33.85;101295.61;103683;1286;61448;-84
2023/04/08 03:17:45;;;;;;;;;;;;;;;21.53;33.78;101295.98;103781;1286;74326;-83
2023/04/08 03:20:11;;;;;;;;;;;;;;;21.53;33.75;101297.41;103595;1287;61256;-83
2023/04/08 03:22:37;;;;;;;;;;;;;;;21.53;33.79;101297.43;103715;1289;61536;-83
2023/04/08 03:25:03;;;;;;;;;;;;;;;21.53;33.72;101296.16;103732;1286;61340;-83
2023/04/08 03:27:28;;;;;;;;;;;;;;;21.54;33.74;101300.61;103662;1289;62545;-83
2023/04/08 03:29:56;;;;;;;;;;;;;;;21.53;33.77;101303.68;103657;1289;61461;-83
2023/04/08 03:32:22;;;;;;;;;;;;;;;21.54;33.73;101311.15;103790;1286;61486;-83
2023/04/08 03:34:49;;;;;;;;;;;;;;;21.53;33.69;101312.63;103666;1289;62463;-82
2023/04/08 03:37:18;;;;;;;;;;;;;;;21.54;33.84;101309.39;103631;1289;61439;-82
2023/04/08 03:39:43;;;;;;;;;;;;;;;21.54;33.75;101318.69;103614;1289;61873;-83
2023/04/08 03:42:09;;;;;;;;;;;;;;;21.54;33.73;101321.37;103614;1287;61407;-83
2023/04/08 03:44:34;;;;;;;;;;;;;;;21.54;33.91;101322.45;103641;1289;62504;-83
2023/04/08 03:47:00;;;;;;;;;;;;;;;21.54;33.88;101324.77;103608;1290;61406;-83
2023/04/08 03:49:25;;;;;;;;;;;;;;;21.53;33.81;101327.13;103734;1289;62573;-83
2023/04/08 03:51:51;;;;;;;;;;;;;;;21.54;33.81;101328.18;103652;1289;61339;-84
2023/04/08 03:54:17;;;;;;;;;;;;;;;21.53;33.79;101329.64;103708;1289;62450;-84
2023/04/08 03:56:42;;;;;;;;;;;;;;;21.53;33.72;101329.11;103673;1287;61368;-83
2023/04/08 03:59:07;;;;;;;;;;;;;;;21.54;33.94;101334.83;103680;1291;62426;-84
2023/04/08 04:01:33;;;;;;;;;;;;;;;21.54;33.83;101339.46;103630;1286;61380;-84
2023/04/08 04:03:59;;;;;;;;;;;;;;;21.54;33.84;101340.16;103680;1286;61350;-84
2023/04/08 04:06:26;;;;;;;;;;;;;;;21.53;33.99;101341.83;103673;1287;62392;-83
2023/04/08 04:08:54;;;;;;;;;;;;;;;21.54;33.85;101341.98;103648;1288;61288;-84
2023/04/08 04:11:21;;;;;;;;;;;;;;;21.54;33.90;101341.96;103649;1287;74518;-83
2023/04/08 04:13:47;;;;;;;;;;;;;;;21.54;33.83;101340.00;103659;1286;61256;-84
2023/04/08 04:16:13;;;;;;;;;;;;;;;21.54;33.83;101342.70;103793;1286;61502;-84
2023/04/08 04:18:38;;;;;;;;;;;;;;;21.54;33.99;101344.67;104090;1286;61360;-83
2023/04/08 04:21:05;;;;;;;;;;;;;;;21.53;33.96;101341.47;103686;1289;62655;-84
2023/04/08 04:23:31;;;;;;;;;;;;;;;21.54;33.95;101344.67;103787;1291;61438;-83
2023/04/08 04:26:22;;;;;;;;;;;;;;;21.54;33.87;101345.73;103740;1286;61484;-83
2023/04/08 04:28:48;;;;;;;;;;;;;;;21.54;33.89;101348.21;103115;1292;72895;-84
2023/04/08 04:31:18;;;;;;;;;;;;;;;21.54;33.99;101349.63;103100;1292;61470;-84
2023/04/08 04:33:44;;;;;;;;;;;;;;;21.55;34.02;101350.30;103196;1292;62483;-84
2023/04/08 04:36:09;;;;;;;;;;;;;;;21.55;33.98;101356.40;103195;1292;61506;-82
2023/04/08 04:38:35;;;;;;;;;;;;;;;21.55;34.06;101355.48;103118;1297;61380;-83
2023/04/08 04:41:01;;;;;;;;;;;;;;;21.57;34.13;101360.06;103158;1292;61427;-83
2023/04/08 04:43:26;;;;;;;;;;;;;;;21.56;34.13;101360.95;103080;1292;62224;-82
2023/04/08 04:45:52;;;;;;;;;;;;;;;21.56;33.96;101361.33;103071;1292;62342;-83
2023/04/08 04:48:17;;;;;;;;;;;;;;;21.56;34.09;101364.89;103144;1291;61305;-83
2023/04/08 04:50:43;;;;;;;;;;;;;;;21.57;34.07;101369.02;103209;1292;61416;-83
2023/04/08 04:53:08;;;;;;;;;;;;;;;21.57;34.12;101368.64;103124;1291;61522;-83
2023/04/08 04:55:34;;;;;;;;;;;;;;;21.58;34.03;101373.44;103191;1292;61573;-83
2023/04/08 04:58:00;;;;;;;;;;;;;;;21.58;34.16;101372.88;103077;1292;61400;-83
2023/04/08 05:00:26;;;;;;;;;;;;;;;21.58;34.09;101376.45;103047;1292;61382;-83
2023/04/08 05:02:52;;;;;;;;;;;;;;;21.58;34.06;101378.23;103014;1291;62551;-84
2023/04/08 05:05:17;;;;;;;;;;;;;;;21.58;34.19;101376.09;103220;1297;61587;-84
2023/04/08 05:08:06;;;;;;;;;;;;;;;21.59;34.10;101379.80;103594;1289;62440;-83
2023/04/08 05:10:32;;;;;;;;;;;;;;;21.58;34.20;101382.54;103177;1292;61265;-82
2023/04/08 05:12:57;;;;;;;;;;;;;;;21.59;34.22;101382.64;103157;1292;61497;-83
2023/04/08 05:15:23;;;;;;;;;;;;;;;21.59;34.14;101387.63;103098;1297;61404;-84
2023/04/08 05:17:48;;;;;;;;;;;;;;;21.60;34.18;101387.42;102984;1292;61483;-83
2023/04/08 05:20:15;;;;;;;;;;;;;;;21.60;34.08;101386.54;103064;1294;61403;-83
2023/04/08 05:22:41;;;;;;;;;;;;;;;21.59;34.15;101389.25;103188;1292;61536;-84
2023/04/08 05:25:07;;;;;;;;;;;;;;;21.60;34.08;101388.11;103114;1292;62478;-84
2023/04/08 05:27:32;;;;;;;;;;;;;;;21.61;34.04;101391.48;103089;1292;61574;-83
2023/04/08 05:29:58;;;;;;;;;;;;;;;21.61;34.20;101394.88;103150;1294;61564;-83
2023/04/08 05:32:23;;;;;;;;;;;;;;;21.61;34.11;101398.46;103114;1292;62276;-84
2023/04/08 05:34:49;;;;;;;;;;;;;;;21.61;34.06;101397.05;103246;1292;61483;-83
2023/04/08 05:37:14;;;;;;;;;;;;;;;21.62;34.19;101399.88;103032;1297;72269;-83
2023/04/08 05:39:41;;;;;;;;;;;;;;;21.62;34.16;101401.13;103073;1292;61404;-83
2023/04/08 05:42:07;;;;;;;;;;;;;;;21.62;34.24;101401.82;103012;1294;61462;-84
2023/04/08 05:44:33;;;;;;;;;;;;;;;21.62;34.20;101399.86;103108;1292;61491;-84
2023/04/08 05:46:59;;;;;;;;;;;;;;;21.62;34.12;101399.12;103034;1292;61334;-83
2023/04/08 05:49:24;;;;;;;;;;;;;;;21.63;34.16;101401.23;103664;1286;62046;-83
2023/04/08 05:51:50;;;;;;;;;;;;;;;21.63;34.07;101400.16;103663;1289;61368;-84
2023/04/08 05:54:15;;;;;;;;;;;;;;;21.62;34.23;101400.19;103628;1291;61364;-84
2023/04/08 05:56:41;;;;;;;;;;;;;;;21.62;34.11;101400.55;103628;1288;61714;-84
2023/04/08 05:59:06;;;;;;;;;;;;;;;21.62;34.12;101402.33;103600;1290;62598;-83
2023/04/08 06:01:32;;;;;;;;;;;;;;;21.62;34.15;101403.09;103569;1289;61385;-83
2023/04/08 06:03:57;;;;;;;;;;;;;;;21.63;34.18;101404.11;103702;1289;61429;-84
2023/04/08 06:06:24;;;;;;;;;;;;;;;21.63;34.21;101405.36;103668;1291;62915;-84
2023/04/08 06:08:49;;;;;;;;;;;;;;;21.63;34.34;101404.83;103576;1287;61448;-84
2023/04/08 06:11:15;;;;;;;;;;;;;;;21.62;34.21;101402.91;103643;1289;62448;-84
2023/04/08 06:13:41;;;;;;;;;;;;;;;21.62;34.08;101405.23;103576;1291;61400;-84
2023/04/08 06:16:14;;;;;;;;;;;;;;;21.61;34.14;101406.15;103636;1286;62480;-84
2023/04/08 06:18:39;;;;;;;;;;;;;;;21.62;34.24;101405.05;103675;1289;61319;-83
2023/04/08 06:21:05;;;;;;;;;;;;;;;21.62;34.18;101402.20;103625;1289;61394;-84
2023/04/08 06:23:31;;;;;;;;;;;;;;;21.62;34.25;101402.52;103612;1291;61363;-83
2023/04/08 06:25:57;;;;;;;;;;;;;;;21.62;34.23;101406.29;103608;1288;61311;-84
2023/04/08 06:28:23;;;;;;;;;;;;;;;21.63;34.16;101406.77;103689;1287;61521;-84
2023/04/08 06:30:48;;;;;;;;;;;;;;;21.62;34.15;101405.05;103719;1291;61415;-84
2023/04/08 06:33:14;;;;;;;;;;;;;;;21.63;33.99;101405.73;103634;1287;73729;-84
2023/04/08 06:35:40;;;;;;;;;;;;;;;21.62;34.12;101404.30;103629;1291;61305;-84
2023/04/08 06:38:06;;;;;;;;;;;;;;;21.63;34.14;101402.46;103755;1289;61390;-84
2023/04/08 06:40:31;;;;;;;;;;;;;;;21.64;34.17;101404.77;105748;1286;61399;-82
2023/04/08 06:42:57;;;;;;;;;;;;;;;21.65;34.11;101404.35;103580;1286;61391;-82
2023/04/08 06:45:22;;;;;;;;;;;;;;;21.65;34.12;101403.23;103748;1289;62487;-82
2023/04/08 06:47:48;;;;;;;;;;;;;;;21.65;34.08;101398.91;103673;1291;61458;-82
2023/04/08 06:50:13;;;;;;;;;;;;;;;21.67;34.08;101401.52;103710;1289;61420;-83
2023/04/08 06:52:39;;;;;;;;;;;;;;;21.68;34.16;101402.73;103629;1291;61350;-83
2023/04/08 06:55:05;;;;;;;;;;;;;;;21.68;34.11;101402.86;103628;1289;61401;-84
2023/04/08 06:57:31;;;;;;;;;;;;;;;21.69;34.07;101398.16;103708;1285;62466;-83
2023/04/08 06:59:56;;;;;;;;;;;;;;;21.69;34.18;101399.38;103945;1288;61343;-84
2023/04/08 07:02:22;;;;;;;;;;;;;;;21.70;34.10;101398.61;103995;1284;61385;-83
2023/04/08 07:04:47;;;;;;;;;;;;;;;21.70;34.09;101396.80;102622;1285;1695121;-83
2023/04/08 07:07:13;;;;;;;;;;;;;;;21.71;34.06;101396.55;103929;1288;61311;-83
2023/04/08 07:09:42;;;;;;;;;;;;;;;21.72;34.09;101396.54;103898;1288;61407;-84
2023/04/08 07:12:07;;;;;;;;;;;;;;;21.72;34.13;101399.91;104008;1285;61474;-83
2023/04/08 07:14:33;;;;;;;;;;;;;;;21.72;34.21;101403.65;103961;1284;62484;-83
2023/04/08 07:16:58;;;;;;;;;;;;;;;21.73;34.13;101404.30;104018;1285;61528;-83
2023/04/08 07:19:24;;;;;;;;;;;;;;;21.74;34.01;101407.30;104014;1287;61832;-83
2023/04/08 07:21:49;;;;;;;;;;;;;;;21.75;33.95;101410.31;103942;1284;74213;-83
2023/04/08 07:24:15;;;;;;;;;;;;;;;21.75;33.90;101410.46;103928;1285;61323;-84
2023/04/08 07:26:41;;;;;;;;;;;;;;;21.76;34.07;101408.81;103940;1283;61338;-83
2023/04/08 07:29:06;;;;;;;;;;;;;;;21.77;34.19;101408.40;103906;1283;61346;-83
2023/04/08 07:31:31;;;;;;;;;;;;;;;21.78;34.04;101409.41;104008;1285;62459;-84
2023/04/08 07:33:58;;;;;;;;;;;;;;;21.78;34.08;101409.61;103768;1285;74640;-83
2023/04/08 07:36:23;;;;;;;;;;;;;;;21.78;34.01;101409.73;103972;1285;62176;-83
2023/04/08 07:38:49;;;;;;;;;;;;;;;21.79;33.97;101413.98;103953;1285;61376;-83
2023/04/08 07:41:38;;;;;;;;;;;;;;;21.79;34.10;101408.77;103902;1285;61376;-84
2023/04/08 07:44:04;;;;;;;;;;;;;;;21.80;33.98;101407.69;103377;1288;74527;-83
2023/04/08 07:46:30;;;;;;;;;;;;;;;21.80;33.99;101406.58;103553;1289;61310;-83
2023/04/08 07:48:56;;;;;;;;;;;;;;;21.80;33.95;101413.00;103271;1288;61552;-83
2023/04/08 07:51:22;;;;;;;;;;;;;;;21.81;34.08;101412.77;103504;1289;61403;-83
2023/04/08 07:53:47;;;;;;;;;;;;;;;21.81;34.02;101413.13;103439;1289;61582;-84
2023/04/08 07:56:14;;;;;;;;;;;;;;;21.82;33.87;101420.27;103557;1288;61404;-83
2023/04/08 07:58:39;;;;;;;;;;;;;;;21.82;34.02;101418.45;103278;1288;61452;-83
2023/04/08 08:01:16;;;;;;;;;;;;;;;21.82;34.07;101414.71;103240;1288;61365;-83
2023/04/08 08:03:42;;;;;;;;;;;;;;;21.82;34.04;101419.91;103241;1294;73490;-84
2023/04/08 08:06:10;;;;;;;;;;;;;;;21.81;34.10;101421.01;103415;1288;61726;-83
2023/04/08 08:08:36;;;;;;;;;;;;;;;21.81;34.10;101420.66;103415;1288;61351;-83
2023/04/08 08:11:02;;;;;;;;;;;;;;;21.81;34.12;101423.89;103203;1289;61407;-82
2023/04/08 08:13:27;;;;;;;;;;;;;;;21.81;34.18;101423.34;103519;1289;62666;-84
2023/04/08 08:15:53;;;;;;;;;;;;;;;21.82;34.07;101423.50;103449;1288;61548;-84
2023/04/08 08:18:19;;;;;;;;;;;;;;;21.82;34.00;101424.93;103448;1289;61305;-83
2023/04/08 08:20:45;;;;;;;;;;;;;;;21.81;34.03;101423.52;103238;1294;62849;-84
2023/04/08 08:23:11;;;;;;;;;;;;;;;21.81;34.14;101424.95;103965;1283;61385;-84
2023/04/08 08:25:37;;;;;;;;;;;;;;;21.82;34.09;101428.88;103928;1283;71837;-84
2023/04/08 08:28:02;;;;;;;;;;;;;;;21.81;34.21;101429.60;103791;1285;61327;-84
2023/04/08 08:30:28;;;;;;;;;;;;;;;21.82;34.20;101429.94;103796;1288;61384;-83
2023/04/08 08:32:55;;;;;;;;;;;;;;;21.82;34.20;101426.88;103989;1285;61349;-83
2023/04/08 08:35:20;;;;;;;;;;;;;;;21.82;34.11;101429.39;103901;1288;61474;-84
2023/04/08 08:37:46;;;;;;;;;;;;;;;21.82;34.11;101429.39;104018;1286;61869;-83
2023/04/08 08:40:12;;;;;;;;;;;;;;;21.82;34.15;101426.36;103998;1288;75604;-83
2023/04/08 08:42:38;;;;;;;;;;;;;;;21.82;34.22;101427.95;103888;1285;61276;-84
2023/04/08 08:45:04;;;;;;;;;;;;;;;21.82;34.12;101426.52;103970;1288;61458;-83
2023/04/08 08:47:29;;;;;;;;;;;;;;;21.83;34.21;101428.60;103931;1286;61391;-83
2023/04/08 08:49:55;;;;;;;;;;;;;;;21.83;34.15;101431.07;103911;1288;61387;-84
2023/04/08 08:52:20;;;;;;;;;;;;;;;21.84;34.23;101434.09;103996;1288;69369;-83
2023/04/08 08:54:46;;;;;;;;;;;;;;;21.85;34.19;101435.31;103953;1285;62000;-83
2023/04/08 08:57:18;;;;;;;;;;;;;;;21.84;34.14;101438.39;103810;1289;61779;-83
2023/04/08 08:59:45;;;;;;;;;;;;;;;21.84;34.26;101436.92;103861;1285;73903;-83
2023/04/08 09:02:27;;;;;;;;;;;;;;;21.84;34.23;101435.35;104386;1283;61409;-84
2023/04/08 09:04:56;;;;;;;;;;;;;;;21.84;34.21;101436.23;104134;1285;61272;-84
2023/04/08 09:07:24;;;;;;;;;;;;;;;21.84;34.24;101437.81;103921;1286;61820;-83
2023/04/08 09:09:50;;;;;;;;;;;;;;;21.85;34.25;101439.38;104073;1288;73308;-83
2023/04/08 09:12:15;;;;;;;;;;;;;;;21.85;34.18;101432.76;103941;1285;62637;-83
2023/04/08 09:14:41;;;;;;;;;;;;;;;21.86;34.31;101432.17;103996;1286;61476;-83
2023/04/08 09:17:06;;;;;;;;;;;;;;;21.87;34.25;101434.99;103972;1286;62481;-84
2023/04/08 09:19:33;;;;;;;;;;;;;;;21.87;34.23;101434.46;103958;1285;61446;-83
2023/04/08 09:22:06;;;;;;;;;;;;;;;21.87;34.32;101437.14;103970;1288;72464;-84
2023/04/08 09:24:31;;;;;;;;;;;;;;;21.86;34.18;101435.71;104035;1286;75479;-83
2023/04/08 09:26:57;;;;;;;;;;;;;;;21.87;34.22;101436.41;103935;1288;61447;-83
2023/04/08 09:29:23;;;;;;;;;;;;;;;21.87;34.24;101434.45;103886;1286;61355;-83
2023/04/08 09:31:52;;;;;;;;;;;;;;;21.87;34.21;101435.17;104015;1284;61449;-83
2023/04/08 09:34:19;;;;;;;;;;;;;;;21.87;34.15;101432.08;103977;1284;61388;-83
2023/04/08 09:36:46;;;;;;;;;;;;;;;21.88;34.27;101432.59;104026;1285;61301;-83
2023/04/08 09:39:11;;;;;;;;;;;;;;;21.88;34.18;101430.95;104008;1285;62534;-83
2023/04/08 09:41:37;;;;;;;;;;;;;;;21.88;34.29;101431.49;103943;1286;61748;-83
2023/04/08 09:44:03;;;;;;;;;;;;;;;21.88;34.20;101427.91;103963;1285;61461;-83
2023/04/08 09:46:32;;;;;;;;;;;;;;;21.88;34.26;101432.92;104052;1283;62659;-84
2023/04/08 09:49:31;;;;;;;;;;;;;;;21.88;34.26;101436.71;103978;1287;61295;-83
2023/04/08 09:52:15;;;;;;;;;;;;;;;21.88;34.21;101437.20;103156;1289;71452;-83
2023/04/08 09:54:59;;;;;;;;;;;;;;;21.88;34.28;101441.88;103446;1289;74556;-83
2023/04/08 09:57:36;;;;;;;;;;;;;;;21.89;34.32;101440.74;103446;1288;61398;-84
2023/04/08 10:00:06;;;;;;;;;;;;;;;21.89;34.29;101440.04;103455;1288;61376;-84
2023/04/08 10:02:32;;;;;;;;;;;;;;;21.89;34.21;101442.34;103446;1289;71577;-84
2023/04/08 10:04:58;;;;;;;;;;;;;;;21.90;34.29;101444.29;103413;1293;61750;-84
2023/04/08 10:07:24;;;;;;;;;;;;;;;21.89;34.21;101444.69;103211;1292;61828;-83
2023/04/08 10:09:49;;;;;;;;;;;;;;;21.89;34.32;101440.71;103415;1288;61417;-84
2023/04/08 10:12:15;;;;;;;;;;;;;;;21.89;34.40;101438.58;103493;1289;61576;-83
2023/04/08 10:14:40;;;;;;;;;;;;;;;21.89;34.37;101442.17;103277;1288;61338;-84
2023/04/08 10:17:29;;;;;;;;;;;;;;;21.90;34.37;101444.80;103235;1288;74518;-83
2023/04/08 10:19:54;;;;;;;;;;;;;;;21.90;34.27;101441.73;103260;1288;61868;-83
2023/04/08 10:22:46;;;;;;;;;;;;;;;21.90;34.39;101441.75;103448;1289;61404;-84
2023/04/08 10:25:18;;;;;;;;;;;;;;;21.90;34.33;101441.02;103424;1292;72295;-84
2023/04/08 10:27:44;;;;;;;;;;;;;;;21.91;34.49;101442.95;103585;1289;75346;-83
2023/04/08 10:30:24;;;;;;;;;;;;;;;21.92;34.26;101440.01;103954;1283;61329;-83
2023/04/08 10:32:50;;;;;;;;;;;;;;;21.92;34.34;101432.48;104028;1286;61702;-84
2023/04/08 10:35:16;;;;;;;;;;;;;;;21.92;34.41;101433.34;103949;1286;61390;-84
2023/04/08 10:37:42;;;;;;;;;;;;;;;21.93;34.40;101432.80;103990;1285;61394;-83
2023/04/08 10:40:17;;;;;;;;;;;;;;;21.93;34.40;101426.12;103949;1286;61364;-84
2023/04/08 10:42:43;;;;;;;;;;;;;;;21.94;34.47;101427.89;104044;1285;61288;-84
2023/04/08 10:45:09;;;;;;;;;;;;;;;21.95;34.35;101427.11;104019;1287;61429;-83
2023/04/08 10:47:34;;;;;;;;;;;;;;;21.95;34.44;101423.54;103984;1285;61363;-83
2023/04/08 10:50:11;;;;;;;;;;;;;;;21.95;34.38;101423.89;104069;1284;61525;-83
2023/04/08 10:52:45;;;;;;;;;;;;;;;21.95;34.47;101417.98;103977;1284;61282;-83
2023/04/08 10:55:10;;;;;;;;;;;;;;;21.95;34.49;101420.82;103922;1286;72502;-83
2023/04/08 10:57:36;;;;;;;;;;;;;;;21.96;34.37;101413.11;103912;1288;61354;-83
2023/04/08 11:00:04;;;;;;;;;;;;;;;21.96;34.31;101412.91;103719;1286;61394;-83
2023/04/08 11:02:31;;;;;;;;;;;;;;;21.96;34.47;101408.27;103759;1290;62511;-83
2023/04/08 11:04:57;;;;;;;;;;;;;;;21.96;34.34;101411.13;103704;1285;61672;-82
2023/04/08 11:07:24;;;;;;;;;;;;;;;21.96;34.32;101411.67;103775;1285;61574;-82
2023/04/08 11:10:15;;;;;;;;;;;;;;;21.96;34.36;101408.27;103751;1291;61412;-83
2023/04/08 11:12:41;;;;;;;;;;;;;;;21.96;34.42;101408.98;103243;1292;61676;-84
2023/04/08 11:15:07;;;;;;;;;;;;;;;21.96;34.37;101411.65;103185;1292;61513;-83
2023/04/08 11:17:33;;;;;;;;;;;;;;;21.96;34.39;101415.42;103179;1292;61623;-84
2023/04/08 11:20:01;;;;;;;;;;;;;;;21.96;34.40;101410.40;103204;1292;61319;-83
2023/04/08 11:22:27;;;;;;;;;;;;;;;21.96;34.34;101413.45;103349;1292;61641;-83
2023/04/08 11:24:52;;;;;;;;;;;;;;;21.96;34.24;101408.80;103442;1296;61347;-83
2023/04/08 11:27:18;;;;;;;;;;;;;;;21.96;34.35;101410.92;103332;1292;62123;-83
2023/04/08 11:29:43;;;;;;;;;;;;;;;21.96;34.43;101411.63;103191;1294;61474;-82
2023/04/08 11:32:09;;;;;;;;;;;;;;;21.97;34.21;101410.88;103294;1294;62442;-84
2023/04/08 11:34:37;;;;;;;;;;;;;;;21.96;34.37;101407.89;103396;1289;61481;-83
2023/04/08 11:37:04;;;;;;;;;;;;;;;21.97;34.26;101405.67;103492;1289;73926;-83
2023/04/08 11:39:30;;;;;;;;;;;;;;;21.97;34.39;101404.05;103514;1288;75570;-83
2023/04/08 11:41:56;;;;;;;;;;;;;;;21.97;34.44;101405.11;103524;1291;61602;-83
2023/04/08 11:44:31;;;;;;;;;;;;;;;21.98;34.36;101402.40;103606;1289;62456;-82
2023/04/08 11:46:57;;;;;;;;;;;;;;;21.98;34.46;101399.50;103603;1292;73543;-82
2023/04/08 11:49:23;;;;;;;;;;;;;;;21.98;34.24;101398.98;103727;1285;61394;-84
2023/04/08 11:51:58;;;;;;;;;;;;;;;21.98;34.37;101394.65;103861;1286;61431;-83
2023/04/08 11:54:30;;;;;;;;;;;;;;;21.98;34.29;101389.65;103960;1288;61747;-83
2023/04/08 11:56:57;;;;;;;;;;;;;;;21.98;34.32;101388.04;103777;1288;73365;-82
2023/04/08 11:59:23;;;;;;;;;;;;;;;21.99;34.28;101378.66;103865;1288;61378;-83
2023/04/08 12:01:50;;;;;;;;;;;;;;;21.99;34.46;101379.17;103854;1286;61388;-83
2023/04/08 12:04:16;;;;;;;;;;;;;;;21.99;34.30;101376.66;103854;1283;61664;-84
2023/04/08 12:06:45;;;;;;;;;;;;;;;22.00;34.35;101373.95;104032;1283;61295;-84
2023/04/08 12:09:11;;;;;;;;;;;;;;;21.99;34.37;101373.95;103940;1283;74267;-83
2023/04/08 12:11:37;;;;;;;;;;;;;;;22.00;34.36;101375.58;103967;1288;61250;-83
2023/04/08 12:14:02;;;;;;;;;;;;;;;22.00;34.32;101372.48;103929;1283;61387;-83
2023/04/08 12:16:28;;;;;;;;;;;;;;;22.00;34.39;101371.21;103804;1283;61405;-84
2023/04/08 12:18:54;;;;;;;;;;;;;;;22.00;34.32;101363.86;103903;1288;61416;-83
2023/04/08 12:21:19;;;;;;;;;;;;;;;22.00;34.40;101363.50;103986;1283;62633;-83
2023/04/08 12:23:45;;;;;;;;;;;;;;;22.01;34.30;101367.23;104001;1282;61768;-83